sensor_id;sensor_type;location;lat;lon;timestamp;temperature;humidity
27534;DHT22;14973;51.460;7.008;2022-10-31T00:01:35;16.30;56.60
27534;DHT22;14973;51.460;7.008;2022-10-31T00:04:02;16.30;53.60
27534;DHT22;14973;51.460;7.008;2022-10-31T00:06:28;16.20;56.40
27534;DHT22;14973;51.460;7.008;2022-10-31T00:08:58;16.20;59.80
27534;DHT22;14973;51.460;7.008;2022-10-31T00:11:24;16.20;60.80
27534;DHT22;14973;51.460;7.008;2022-10-31T00:13:50;16.20;59.10
27534;DHT22;14973;51.460;7.008;2022-10-31T00:16:21;16.20;56.60
27534;DHT22;14973;51.460;7.008;2022-10-31T00:18:51;16.20;55.70
27534;DHT22;14973;51.460;7.008;2022-10-31T00:21:17;16.20;55.70
27534;DHT22;14973;51.460;7.008;2022-10-31T00:23:42;16.10;55.50
27534;DHT22;14973;51.460;7.008;2022-10-31T00:26:08;16.10;57.30
27534;DHT22;14973;51.460;7.008;2022-10-31T00:28:34;16.00;60.00
27534;DHT22;14973;51.460;7.008;2022-10-31T00:31:01;15.80;68.60
27534;DHT22;14973;51.460;7.008;2022-10-31T00:33:27;15.70;78.00
27534;DHT22;14973;51.460;7.008;2022-10-31T00:35:53;15.60;83.20
27534;DHT22;14973;51.460;7.008;2022-10-31T00:38:19;15.50;84.00
27534;DHT22;14973;51.460;7.008;2022-10-31T00:40:44;15.40;88.00
27534;DHT22;14973;51.460;7.008;2022-10-31T00:43:10;15.40;89.70
27534;DHT22;14973;51.460;7.008;2022-10-31T00:45:36;15.30;91.30
27534;DHT22;14973;51.460;7.008;2022-10-31T00:48:01;15.20;92.20
27534;DHT22;14973;51.460;7.008;2022-10-31T00:50:27;15.20;94.20
27534;DHT22;14973;51.460;7.008;2022-10-31T00:52:52;15.20;95.00
27534;DHT22;14973;51.460;7.008;2022-10-31T00:55:18;15.20;94.90
27534;DHT22;14973;51.460;7.008;2022-10-31T00:57:46;15.30;95.50
27534;DHT22;14973;51.460;7.008;2022-10-31T01:00:12;15.30;94.90
27534;DHT22;14973;51.460;7.008;2022-10-31T01:02:38;15.40;93.00
27534;DHT22;14973;51.460;7.008;2022-10-31T01:05:03;15.50;89.90
27534;DHT22;14973;51.460;7.008;2022-10-31T01:07:29;15.50;85.80
27534;DHT22;14973;51.460;7.008;2022-10-31T01:09:55;15.60;99.90
27534;DHT22;14973;51.460;7.008;2022-10-31T01:12:20;15.60;99.90
27534;DHT22;14973;51.460;7.008;2022-10-31T01:14:46;15.60;99.90
27534;DHT22;14973;51.460;7.008;2022-10-31T01:17:12;15.70;99.90
27534;DHT22;14973;51.460;7.008;2022-10-31T01:19:38;15.70;99.90
27534;DHT22;14973;51.460;7.008;2022-10-31T01:22:04;15.70;99.90
27534;DHT22;14973;51.460;7.008;2022-10-31T01:24:30;15.80;99.90
27534;DHT22;14973;51.460;7.008;2022-10-31T01:26:55;15.80;54.00
27534;DHT22;14973;51.460;7.008;2022-10-31T01:29:21;15.80;49.10
27534;DHT22;14973;51.460;7.008;2022-10-31T01:31:47;15.80;46.10
27534;DHT22;14973;51.460;7.008;2022-10-31T01:34:14;15.90;47.90
27534;DHT22;14973;51.460;7.008;2022-10-31T01:36:41;16.00;37.00
27534;DHT22;14973;51.460;7.008;2022-10-31T01:39:10;16.00;34.50
27534;DHT22;14973;51.460;7.008;2022-10-31T01:41:39;16.00;35.00
27534;DHT22;14973;51.460;7.008;2022-10-31T01:47:30;15.90;37.30
27534;DHT22;14973;51.460;7.008;2022-10-31T01:49:53;16.00;26.40
27534;DHT22;14973;51.460;7.008;2022-10-31T01:52:42;16.10;18.10
27534;DHT22;14973;51.460;7.008;2022-10-31T01:55:18;16.10;22.80
27534;DHT22;14973;51.460;7.008;2022-10-31T01:57:48;16.10;26.80
27534;DHT22;14973;51.460;7.008;2022-10-31T02:00:15;16.20;34.60
27534;DHT22;14973;51.460;7.008;2022-10-31T02:02:42;16.20;41.00
27534;DHT22;14973;51.460;7.008;2022-10-31T02:05:15;16.20;44.80
27534;DHT22;14973;51.460;7.008;2022-10-31T02:08:26;16.10;48.90
27534;DHT22;14973;51.460;7.008;2022-10-31T02:10:49;15.90;60.40
27534;DHT22;14973;51.460;7.008;2022-10-31T02:13:15;15.80;68.90
27534;DHT22;14973;51.460;7.008;2022-10-31T02:15:42;15.80;70.90
27534;DHT22;14973;51.460;7.008;2022-10-31T02:18:09;15.70;74.10
27534;DHT22;14973;51.460;7.008;2022-10-31T02:24:00;15.50;87.50
27534;DHT22;14973;51.460;7.008;2022-10-31T02:26:51;15.30;90.80
27534;DHT22;14973;51.460;7.008;2022-10-31T02:37:14;14.80;97.20
27534;DHT22;14973;51.460;7.008;2022-10-31T02:39:46;14.70;98.80
27534;DHT22;14973;51.460;7.008;2022-10-31T02:45:10;14.50;99.90
27534;DHT22;14973;51.460;7.008;2022-10-31T02:47:37;14.40;99.90
27534;DHT22;14973;51.460;7.008;2022-10-31T02:50:15;14.40;99.90
27534;DHT22;14973;51.460;7.008;2022-10-31T02:52:41;14.40;99.90
27534;DHT22;14973;51.460;7.008;2022-10-31T02:55:57;14.40;99.90
27534;DHT22;14973;51.460;7.008;2022-10-31T02:58:05;14.50;99.90
27534;DHT22;14973;51.460;7.008;2022-10-31T03:00:42;14.40;99.90
27534;DHT22;14973;51.460;7.008;2022-10-31T03:03:14;14.30;99.90
27534;DHT22;14973;51.460;7.008;2022-10-31T03:10:59;14.20;99.90
27534;DHT22;14973;51.460;7.008;2022-10-31T03:18:38;14.20;99.90
27534;DHT22;14973;51.460;7.008;2022-10-31T03:21:09;14.00;99.90
27534;DHT22;14973;51.460;7.008;2022-10-31T03:23:37;14.10;99.90
27534;DHT22;14973;51.460;7.008;2022-10-31T03:26:05;13.90;99.90
27534;DHT22;14973;51.460;7.008;2022-10-31T03:28:55;13.80;99.90
27534;DHT22;14973;51.460;7.008;2022-10-31T03:31:27;13.80;99.90
27534;DHT22;14973;51.460;7.008;2022-10-31T03:33:56;13.70;99.90
27534;DHT22;14973;51.460;7.008;2022-10-31T03:36:23;13.70;99.90
27534;DHT22;14973;51.460;7.008;2022-10-31T03:38:50;13.70;99.90
27534;DHT22;14973;51.460;7.008;2022-10-31T03:41:19;13.70;99.90
27534;DHT22;14973;51.460;7.008;2022-10-31T03:43:52;13.80;99.90
27534;DHT22;14973;51.460;7.008;2022-10-31T03:46:19;13.80;99.90
27534;DHT22;14973;51.460;7.008;2022-10-31T03:48:45;13.80;99.90
27534;DHT22;14973;51.460;7.008;2022-10-31T03:51:27;13.80;99.90
27534;DHT22;14973;51.460;7.008;2022-10-31T03:54:01;13.80;99.90
27534;DHT22;14973;51.460;7.008;2022-10-31T03:56:37;13.80;99.90
27534;DHT22;14973;51.460;7.008;2022-10-31T03:59:13;13.60;99.90
27534;DHT22;14973;51.460;7.008;2022-10-31T04:01:42;13.60;99.90
27534;DHT22;14973;51.460;7.008;2022-10-31T04:04:09;13.50;99.90
27534;DHT22;14973;51.460;7.008;2022-10-31T04:06:37;13.40;99.90
27534;DHT22;14973;51.460;7.008;2022-10-31T04:09:05;13.40;99.90
27534;DHT22;14973;51.460;7.008;2022-10-31T04:11:36;13.40;99.90
27534;DHT22;14973;51.460;7.008;2022-10-31T04:14:05;13.40;99.90
27534;DHT22;14973;51.460;7.008;2022-10-31T04:16:31;13.30;99.90
27534;DHT22;14973;51.460;7.008;2022-10-31T04:18:57;13.30;99.90
27534;DHT22;14973;51.460;7.008;2022-10-31T04:21:29;13.30;99.90
27534;DHT22;14973;51.460;7.008;2022-10-31T04:23:56;13.30;99.90
27534;DHT22;14973;51.460;7.008;2022-10-31T04:26:21;13.30;99.90
27534;DHT22;14973;51.460;7.008;2022-10-31T04:28:47;13.30;99.90
27534;DHT22;14973;51.460;7.008;2022-10-31T04:31:13;13.30;99.90
27534;DHT22;14973;51.460;7.008;2022-10-31T04:33:39;13.40;99.90
27534;DHT22;14973;51.460;7.008;2022-10-31T04:36:05;13.40;99.90
27534;DHT22;14973;51.460;7.008;2022-10-31T04:38:30;13.40;99.90
27534;DHT22;14973;51.460;7.008;2022-10-31T04:40:56;13.50;99.90
27534;DHT22;14973;51.460;7.008;2022-10-31T04:43:22;13.40;99.90
27534;DHT22;14973;51.460;7.008;2022-10-31T04:45:47;13.50;99.90
27534;DHT22;14973;51.460;7.008;2022-10-31T04:48:13;13.50;99.90
27534;DHT22;14973;51.460;7.008;2022-10-31T04:50:39;13.60;99.90
27534;DHT22;14973;51.460;7.008;2022-10-31T04:53:04;13.60;99.90
27534;DHT22;14973;51.460;7.008;2022-10-31T04:55:30;13.60;99.90
27534;DHT22;14973;51.460;7.008;2022-10-31T04:57:56;13.70;99.90
27534;DHT22;14973;51.460;7.008;2022-10-31T05:00:22;13.70;99.90
27534;DHT22;14973;51.460;7.008;2022-10-31T05:02:53;13.70;99.90
27534;DHT22;14973;51.460;7.008;2022-10-31T05:05:21;13.80;99.90
27534;DHT22;14973;51.460;7.008;2022-10-31T05:07:48;13.80;99.90
27534;DHT22;14973;51.460;7.008;2022-10-31T05:10:16;13.70;99.90
27534;DHT22;14973;51.460;7.008;2022-10-31T05:15:14;13.60;99.90
27534;DHT22;14973;51.460;7.008;2022-10-31T05:17:40;13.60;99.90
27534;DHT22;14973;51.460;7.008;2022-10-31T05:20:05;13.50;99.90
27534;DHT22;14973;51.460;7.008;2022-10-31T05:22:31;13.50;99.90
27534;DHT22;14973;51.460;7.008;2022-10-31T05:24:57;13.50;99.90
27534;DHT22;14973;51.460;7.008;2022-10-31T05:27:22;13.50;99.90
27534;DHT22;14973;51.460;7.008;2022-10-31T05:29:48;13.50;99.90
27534;DHT22;14973;51.460;7.008;2022-10-31T05:32:14;13.50;99.90
27534;DHT22;14973;51.460;7.008;2022-10-31T05:34:39;13.40;99.90
27534;DHT22;14973;51.460;7.008;2022-10-31T05:37:05;13.30;99.90
27534;DHT22;14973;51.460;7.008;2022-10-31T05:39:30;13.30;99.90
27534;DHT22;14973;51.460;7.008;2022-10-31T05:41:56;13.20;99.90
27534;DHT22;14973;51.460;7.008;2022-10-31T05:44:21;13.10;99.90
27534;DHT22;14973;51.460;7.008;2022-10-31T05:46:47;13.30;99.90
27534;DHT22;14973;51.460;7.008;2022-10-31T05:49:13;13.40;99.90
27534;DHT22;14973;51.460;7.008;2022-10-31T05:51:38;13.40;99.90
27534;DHT22;14973;51.460;7.008;2022-10-31T05:54:04;13.30;99.90
27534;DHT22;14973;51.460;7.008;2022-10-31T05:56:30;13.40;99.90
27534;DHT22;14973;51.460;7.008;2022-10-31T05:58:56;13.30;99.90
27534;DHT22;14973;51.460;7.008;2022-10-31T06:01:21;13.30;99.90
27534;DHT22;14973;51.460;7.008;2022-10-31T06:03:47;13.20;99.90
27534;DHT22;14973;51.460;7.008;2022-10-31T06:06:12;13.20;99.90
27534;DHT22;14973;51.460;7.008;2022-10-31T06:08:38;13.20;99.90
27534;DHT22;14973;51.460;7.008;2022-10-31T06:11:04;13.20;99.90
27534;DHT22;14973;51.460;7.008;2022-10-31T06:13:29;13.20;99.90
27534;DHT22;14973;51.460;7.008;2022-10-31T06:15:55;13.20;99.90
27534;DHT22;14973;51.460;7.008;2022-10-31T06:18:20;13.20;99.90
27534;DHT22;14973;51.460;7.008;2022-10-31T06:20:46;13.20;99.90
27534;DHT22;14973;51.460;7.008;2022-10-31T06:23:11;13.20;99.90
27534;DHT22;14973;51.460;7.008;2022-10-31T06:25:37;13.20;99.90
27534;DHT22;14973;51.460;7.008;2022-10-31T06:28:03;13.30;99.90
27534;DHT22;14973;51.460;7.008;2022-10-31T06:30:28;13.30;99.90
27534;DHT22;14973;51.460;7.008;2022-10-31T06:32:54;13.30;99.90
27534;DHT22;14973;51.460;7.008;2022-10-31T06:35:20;13.30;99.90
27534;DHT22;14973;51.460;7.008;2022-10-31T06:37:55;13.40;99.90
27534;DHT22;14973;51.460;7.008;2022-10-31T06:40:21;13.30;99.90
27534;DHT22;14973;51.460;7.008;2022-10-31T06:42:46;13.30;99.90
27534;DHT22;14973;51.460;7.008;2022-10-31T06:45:12;13.40;99.90
27534;DHT22;14973;51.460;7.008;2022-10-31T06:47:38;13.40;99.90
27534;DHT22;14973;51.460;7.008;2022-10-31T06:50:04;13.40;99.90
27534;DHT22;14973;51.460;7.008;2022-10-31T06:52:30;13.50;99.90
27534;DHT22;14973;51.460;7.008;2022-10-31T06:54:55;13.50;99.90
27534;DHT22;14973;51.460;7.008;2022-10-31T06:57:21;13.60;99.90
27534;DHT22;14973;51.460;7.008;2022-10-31T06:59:46;13.60;99.90
27534;DHT22;14973;51.460;7.008;2022-10-31T07:02:12;13.70;99.90
27534;DHT22;14973;51.460;7.008;2022-10-31T07:04:38;13.80;99.90
27534;DHT22;14973;51.460;7.008;2022-10-31T07:07:03;13.90;99.90
27534;DHT22;14973;51.460;7.008;2022-10-31T07:09:29;14.00;99.90
27534;DHT22;14973;51.460;7.008;2022-10-31T07:11:54;14.10;99.90
27534;DHT22;14973;51.460;7.008;2022-10-31T07:14:20;14.20;99.90
27534;DHT22;14973;51.460;7.008;2022-10-31T07:16:49;14.20;99.90
27534;DHT22;14973;51.460;7.008;2022-10-31T07:19:16;14.20;99.90
27534;DHT22;14973;51.460;7.008;2022-10-31T07:21:41;14.30;99.90
27534;DHT22;14973;51.460;7.008;2022-10-31T07:24:07;14.40;99.90
27534;DHT22;14973;51.460;7.008;2022-10-31T07:26:32;14.40;99.90
27534;DHT22;14973;51.460;7.008;2022-10-31T07:28:58;14.50;99.90
27534;DHT22;14973;51.460;7.008;2022-10-31T07:31:25;14.30;99.90
27534;DHT22;14973;51.460;7.008;2022-10-31T07:33:50;14.50;99.90
27534;DHT22;14973;51.460;7.008;2022-10-31T07:36:16;14.50;99.90
27534;DHT22;14973;51.460;7.008;2022-10-31T07:38:42;14.50;99.90
27534;DHT22;14973;51.460;7.008;2022-10-31T07:41:07;14.60;99.90
27534;DHT22;14973;51.460;7.008;2022-10-31T07:43:33;14.70;99.90
27534;DHT22;14973;51.460;7.008;2022-10-31T07:45:58;14.70;99.90
27534;DHT22;14973;51.460;7.008;2022-10-31T07:48:24;14.60;99.90
27534;DHT22;14973;51.460;7.008;2022-10-31T07:50:50;14.70;99.90
27534;DHT22;14973;51.460;7.008;2022-10-31T07:53:15;14.80;99.90
27534;DHT22;14973;51.460;7.008;2022-10-31T07:55:41;14.80;99.90
27534;DHT22;14973;51.460;7.008;2022-10-31T07:58:12;14.80;99.90
27534;DHT22;14973;51.460;7.008;2022-10-31T08:00:39;14.90;99.90
27534;DHT22;14973;51.460;7.008;2022-10-31T08:03:08;15.00;99.90
27534;DHT22;14973;51.460;7.008;2022-10-31T08:05:34;15.10;99.90
27534;DHT22;14973;51.460;7.008;2022-10-31T08:08:00;15.00;99.90
27534;DHT22;14973;51.460;7.008;2022-10-31T08:10:27;15.20;99.90
27534;DHT22;14973;51.460;7.008;2022-10-31T08:12:57;15.20;99.50
27534;DHT22;14973;51.460;7.008;2022-10-31T08:15:23;15.30;99.40
27534;DHT22;14973;51.460;7.008;2022-10-31T08:17:49;15.40;99.50
27534;DHT22;14973;51.460;7.008;2022-10-31T08:20:15;15.60;98.10
27534;DHT22;14973;51.460;7.008;2022-10-31T08:22:40;15.80;94.90
27534;DHT22;14973;51.460;7.008;2022-10-31T08:25:06;16.00;92.50
27534;DHT22;14973;51.460;7.008;2022-10-31T08:27:32;16.30;88.50
27534;DHT22;14973;51.460;7.008;2022-10-31T08:29:57;16.50;83.10
27534;DHT22;14973;51.460;7.008;2022-10-31T08:32:24;16.80;76.00
27534;DHT22;14973;51.460;7.008;2022-10-31T08:34:49;17.00;72.30
27534;DHT22;14973;51.460;7.008;2022-10-31T08:37:15;17.20;59.90
27534;DHT22;14973;51.460;7.008;2022-10-31T08:39:45;17.30;55.80
27534;DHT22;14973;51.460;7.008;2022-10-31T08:42:11;17.50;59.30
27534;DHT22;14973;51.460;7.008;2022-10-31T08:44:37;17.70;45.60
27534;DHT22;14973;51.460;7.008;2022-10-31T08:47:03;18.00;40.60
27534;DHT22;14973;51.460;7.008;2022-10-31T08:49:28;18.30;30.70
27534;DHT22;14973;51.460;7.008;2022-10-31T08:51:54;18.40;26.70
27534;DHT22;14973;51.460;7.008;2022-10-31T08:54:19;18.30;28.70
27534;DHT22;14973;51.460;7.008;2022-10-31T08:56:46;18.30;29.50
27534;DHT22;14973;51.460;7.008;2022-10-31T08:59:11;18.50;1.00
27534;DHT22;14973;51.460;7.008;2022-10-31T09:01:37;18.60;1.00
27534;DHT22;14973;51.460;7.008;2022-10-31T09:04:02;18.40;1.00
27534;DHT22;14973;51.460;7.008;2022-10-31T09:06:28;18.40;1.00
27534;DHT22;14973;51.460;7.008;2022-10-31T09:08:54;18.40;1.00
27534;DHT22;14973;51.460;7.008;2022-10-31T09:11:19;18.40;1.00
27534;DHT22;14973;51.460;7.008;2022-10-31T09:13:45;18.50;1.00
27534;DHT22;14973;51.460;7.008;2022-10-31T09:16:11;18.60;1.00
27534;DHT22;14973;51.460;7.008;2022-10-31T09:18:36;18.50;99.90
27534;DHT22;14973;51.460;7.008;2022-10-31T09:21:02;18.50;99.90
27534;DHT22;14973;51.460;7.008;2022-10-31T09:23:28;18.30;1.00
27534;DHT22;14973;51.460;7.008;2022-10-31T09:25:54;18.20;1.00
27534;DHT22;14973;51.460;7.008;2022-10-31T09:28:22;18.20;1.00
27534;DHT22;14973;51.460;7.008;2022-10-31T09:30:50;18.00;1.00
27534;DHT22;14973;51.460;7.008;2022-10-31T09:33:16;18.10;1.00
27534;DHT22;14973;51.460;7.008;2022-10-31T09:35:42;18.00;1.00
27534;DHT22;14973;51.460;7.008;2022-10-31T09:38:13;18.00;1.00
27534;DHT22;14973;51.460;7.008;2022-10-31T09:40:43;18.10;1.00
27534;DHT22;14973;51.460;7.008;2022-10-31T09:51:30;18.00;1.00
27534;DHT22;14973;51.460;7.008;2022-10-31T09:57:00;17.70;1.00
27534;DHT22;14973;51.460;7.008;2022-10-31T09:59:31;17.50;1.00
27534;DHT22;14973;51.460;7.008;2022-10-31T10:02:11;17.70;1.00
27534;DHT22;14973;51.460;7.008;2022-10-31T10:04:59;17.70;1.00
27534;DHT22;14973;51.460;7.008;2022-10-31T10:10:18;17.70;1.00
27534;DHT22;14973;51.460;7.008;2022-10-31T10:30:15;18.20;1.00
27534;DHT22;14973;51.460;7.008;2022-10-31T10:32:53;18.60;1.00
27534;DHT22;14973;51.460;7.008;2022-10-31T10:35:24;19.00;58.00
27534;DHT22;14973;51.460;7.008;2022-10-31T10:37:56;19.10;1.00
27534;DHT22;14973;51.460;7.008;2022-10-31T10:40:26;19.30;1.00
27534;DHT22;14973;51.460;7.008;2022-10-31T10:51:44;18.80;99.90
27534;DHT22;14973;51.460;7.008;2022-10-31T10:57:06;19.00;99.90
27534;DHT22;14973;51.460;7.008;2022-10-31T10:59:36;18.80;99.90
27534;DHT22;14973;51.460;7.008;2022-10-31T11:02:03;18.60;1.00
27534;DHT22;14973;51.460;7.008;2022-10-31T11:04:33;18.50;1.00
27534;DHT22;14973;51.460;7.008;2022-10-31T11:07:01;18.60;1.00
27534;DHT22;14973;51.460;7.008;2022-10-31T11:09:28;18.80;1.00
27534;DHT22;14973;51.460;7.008;2022-10-31T11:11:54;18.80;1.00
27534;DHT22;14973;51.460;7.008;2022-10-31T11:14:21;18.70;1.00
27534;DHT22;14973;51.460;7.008;2022-10-31T11:16:51;18.60;1.00
27534;DHT22;14973;51.460;7.008;2022-10-31T11:19:25;18.70;1.00
27534;DHT22;14973;51.460;7.008;2022-10-31T11:21:54;18.70;1.00
27534;DHT22;14973;51.460;7.008;2022-10-31T11:24:22;18.70;99.90
27534;DHT22;14973;51.460;7.008;2022-10-31T11:26:49;18.80;99.90
27534;DHT22;14973;51.460;7.008;2022-10-31T11:29:25;18.90;99.90
27534;DHT22;14973;51.460;7.008;2022-10-31T11:31:55;19.00;99.90
27534;DHT22;14973;51.460;7.008;2022-10-31T11:39:45;19.00;99.90
27534;DHT22;14973;51.460;7.008;2022-10-31T11:42:23;19.40;1.00
27534;DHT22;14973;51.460;7.008;2022-10-31T11:44:50;19.60;99.90
27534;DHT22;14973;51.460;7.008;2022-10-31T11:47:18;19.40;99.90
27534;DHT22;14973;51.460;7.008;2022-10-31T11:49:47;19.20;1.00
27534;DHT22;14973;51.460;7.008;2022-10-31T11:52:22;19.30;1.00
27534;DHT22;14973;51.460;7.008;2022-10-31T11:57:49;19.10;1.00
27534;DHT22;14973;51.460;7.008;2022-10-31T12:06:12;19.20;1.00
27534;DHT22;14973;51.460;7.008;2022-10-31T12:08:40;19.40;1.00
27534;DHT22;14973;51.460;7.008;2022-10-31T12:16:53;19.80;1.00
27534;DHT22;14973;51.460;7.008;2022-10-31T12:36:24;20.00;99.90
27534;DHT22;14973;51.460;7.008;2022-10-31T12:38:59;20.00;99.90
27534;DHT22;14973;51.460;7.008;2022-10-31T12:44:06;19.90;99.90
27534;DHT22;14973;51.460;7.008;2022-10-31T12:46:47;19.90;1.00
27534;DHT22;14973;51.460;7.008;2022-10-31T12:52:48;19.90;99.90
27534;DHT22;14973;51.460;7.008;2022-10-31T12:55:44;20.10;99.90
27534;DHT22;14973;51.460;7.008;2022-10-31T13:00:43;20.60;99.90
27534;DHT22;14973;51.460;7.008;2022-10-31T13:06:03;20.60;99.90
27534;DHT22;14973;51.460;7.008;2022-10-31T13:08:47;20.80;2.30
27534;DHT22;14973;51.460;7.008;2022-10-31T13:11:25;20.90;1.00
27534;DHT22;14973;51.460;7.008;2022-10-31T13:16:34;21.20;99.90
27534;DHT22;14973;51.460;7.008;2022-10-31T13:24:19;21.40;1.00
27534;DHT22;14973;51.460;7.008;2022-10-31T13:26:50;21.50;99.90
27534;DHT22;14973;51.460;7.008;2022-10-31T13:29:25;21.40;99.90
27534;DHT22;14973;51.460;7.008;2022-10-31T13:31:52;21.30;99.90
27534;DHT22;14973;51.460;7.008;2022-10-31T13:34:33;21.20;99.90
27534;DHT22;14973;51.460;7.008;2022-10-31T13:37:23;21.00;99.90
27534;DHT22;14973;51.460;7.008;2022-10-31T13:40:53;21.00;99.90
27534;DHT22;14973;51.460;7.008;2022-10-31T13:43:21;20.90;99.90
27534;DHT22;14973;51.460;7.008;2022-10-31T13:45:53;20.90;99.90
27534;DHT22;14973;51.460;7.008;2022-10-31T13:48:36;20.80;99.90
27534;DHT22;14973;51.460;7.008;2022-10-31T13:51:05;20.80;99.90
27534;DHT22;14973;51.460;7.008;2022-10-31T13:53:38;20.80;99.90
27534;DHT22;14973;51.460;7.008;2022-10-31T13:56:14;20.80;99.90
27534;DHT22;14973;51.460;7.008;2022-10-31T13:59:01;20.80;99.90
27534;DHT22;14973;51.460;7.008;2022-10-31T14:01:27;21.10;99.90
27534;DHT22;14973;51.460;7.008;2022-10-31T14:04:07;21.30;65.70
27534;DHT22;14973;51.460;7.008;2022-10-31T14:06:51;21.50;1.00
27534;DHT22;14973;51.460;7.008;2022-10-31T14:09:48;21.60;1.00
27534;DHT22;14973;51.460;7.008;2022-10-31T14:12:46;21.60;1.00
27534;DHT22;14973;51.460;7.008;2022-10-31T14:18:02;21.50;1.00
27534;DHT22;14973;51.460;7.008;2022-10-31T14:20:36;21.30;1.00
27534;DHT22;14973;51.460;7.008;2022-10-31T14:26:30;21.20;1.00
27534;DHT22;14973;51.460;7.008;2022-10-31T14:29:00;21.40;1.00
27534;DHT22;14973;51.460;7.008;2022-10-31T14:31:38;21.40;99.90
27534;DHT22;14973;51.460;7.008;2022-10-31T14:34:33;21.40;99.90
27534;DHT22;14973;51.460;7.008;2022-10-31T14:40:27;21.30;99.90
27534;DHT22;14973;51.460;7.008;2022-10-31T14:43:23;21.30;99.90
27534;DHT22;14973;51.460;7.008;2022-10-31T14:48:46;21.10;99.90
27534;DHT22;14973;51.460;7.008;2022-10-31T14:51:21;21.20;99.90
27534;DHT22;14973;51.460;7.008;2022-10-31T14:53:50;21.10;99.90
27534;DHT22;14973;51.460;7.008;2022-10-31T14:56:24;21.00;99.90
27534;DHT22;14973;51.460;7.008;2022-10-31T14:58:50;20.90;99.90
27534;DHT22;14973;51.460;7.008;2022-10-31T15:01:24;20.90;99.90
27534;DHT22;14973;51.460;7.008;2022-10-31T15:04:04;20.90;99.90
27534;DHT22;14973;51.460;7.008;2022-10-31T15:06:39;20.80;99.90
27534;DHT22;14973;51.460;7.008;2022-10-31T15:09:05;20.80;99.90
27534;DHT22;14973;51.460;7.008;2022-10-31T15:11:45;20.70;99.90
27534;DHT22;14973;51.460;7.008;2022-10-31T15:14:28;20.60;99.90
27534;DHT22;14973;51.460;7.008;2022-10-31T15:16:57;20.60;99.90
27534;DHT22;14973;51.460;7.008;2022-10-31T15:19:28;20.70;99.90
27534;DHT22;14973;51.460;7.008;2022-10-31T15:21:56;20.60;99.90
27534;DHT22;14973;51.460;7.008;2022-10-31T15:24:36;20.60;99.90
27534;DHT22;14973;51.460;7.008;2022-10-31T15:27:03;20.50;99.90
27534;DHT22;14973;51.460;7.008;2022-10-31T15:29:29;20.40;99.90
27534;DHT22;14973;51.460;7.008;2022-10-31T15:32:21;20.30;99.90
27534;DHT22;14973;51.460;7.008;2022-10-31T15:34:46;20.20;99.90
27534;DHT22;14973;51.460;7.008;2022-10-31T15:37:17;20.10;99.90
27534;DHT22;14973;51.460;7.008;2022-10-31T15:39:44;20.10;99.90
27534;DHT22;14973;51.460;7.008;2022-10-31T15:44:54;20.10;99.90
27534;DHT22;14973;51.460;7.008;2022-10-31T15:47:22;20.00;99.90
27534;DHT22;14973;51.460;7.008;2022-10-31T15:49:52;19.90;99.90
27534;DHT22;14973;51.460;7.008;2022-10-31T15:52:38;19.80;99.90
27534;DHT22;14973;51.460;7.008;2022-10-31T15:57:46;19.70;99.90
27534;DHT22;14973;51.460;7.008;2022-10-31T16:00:27;19.50;1.00
27534;DHT22;14973;51.460;7.008;2022-10-31T16:03:23;19.60;1.00
27534;DHT22;14973;51.460;7.008;2022-10-31T16:06:36;19.50;1.00
27534;DHT22;14973;51.460;7.008;2022-10-31T16:08:48;19.40;1.00
27534;DHT22;14973;51.460;7.008;2022-10-31T16:14:13;19.20;1.00
27534;DHT22;14973;51.460;7.008;2022-10-31T16:16:43;19.20;1.00
27534;DHT22;14973;51.460;7.008;2022-10-31T16:19:32;19.10;1.00
27534;DHT22;14973;51.460;7.008;2022-10-31T16:22:28;19.10;1.00
27534;DHT22;14973;51.460;7.008;2022-10-31T16:25:02;19.10;1.00
27534;DHT22;14973;51.460;7.008;2022-10-31T16:27:31;19.00;1.00
27534;DHT22;14973;51.460;7.008;2022-10-31T16:29:59;19.00;1.00
27534;DHT22;14973;51.460;7.008;2022-10-31T16:32:50;18.90;1.00
27534;DHT22;14973;51.460;7.008;2022-10-31T16:35:36;18.90;1.00
27534;DHT22;14973;51.460;7.008;2022-10-31T16:38:02;18.80;1.00
27534;DHT22;14973;51.460;7.008;2022-10-31T16:40:28;18.80;1.00
27534;DHT22;14973;51.460;7.008;2022-10-31T16:42:57;18.60;16.30
27534;DHT22;14973;51.460;7.008;2022-10-31T16:45:25;18.50;99.90
27534;DHT22;14973;51.460;7.008;2022-10-31T16:47:51;18.30;99.90
27534;DHT22;14973;51.460;7.008;2022-10-31T16:50:23;18.30;99.90
27534;DHT22;14973;51.460;7.008;2022-10-31T16:52:49;18.20;99.90
27534;DHT22;14973;51.460;7.008;2022-10-31T16:55:16;18.20;99.90
27534;DHT22;14973;51.460;7.008;2022-10-31T16:57:45;18.10;99.90
27534;DHT22;14973;51.460;7.008;2022-10-31T17:00:19;18.10;99.90
27534;DHT22;14973;51.460;7.008;2022-10-31T17:02:45;18.30;40.60
27534;DHT22;14973;51.460;7.008;2022-10-31T17:05:13;18.40;1.00
27534;DHT22;14973;51.460;7.008;2022-10-31T17:07:40;18.40;1.00
27534;DHT22;14973;51.460;7.008;2022-10-31T17:10:06;18.40;1.00
27534;DHT22;14973;51.460;7.008;2022-10-31T17:12:32;18.40;1.00
27534;DHT22;14973;51.460;7.008;2022-10-31T17:14:58;18.40;1.00
27534;DHT22;14973;51.460;7.008;2022-10-31T17:17:23;18.50;1.00
27534;DHT22;14973;51.460;7.008;2022-10-31T17:19:50;18.40;1.00
27534;DHT22;14973;51.460;7.008;2022-10-31T17:22:15;18.40;1.00
27534;DHT22;14973;51.460;7.008;2022-10-31T17:24:41;18.50;1.00
27534;DHT22;14973;51.460;7.008;2022-10-31T17:27:06;18.40;1.00
27534;DHT22;14973;51.460;7.008;2022-10-31T17:29:32;18.50;1.00
27534;DHT22;14973;51.460;7.008;2022-10-31T17:31:58;18.50;1.00
27534;DHT22;14973;51.460;7.008;2022-10-31T17:34:24;18.60;1.00
27534;DHT22;14973;51.460;7.008;2022-10-31T17:36:51;18.70;99.90
27534;DHT22;14973;51.460;7.008;2022-10-31T17:39:20;18.60;99.90
27534;DHT22;14973;51.460;7.008;2022-10-31T17:41:49;18.60;99.90
27534;DHT22;14973;51.460;7.008;2022-10-31T17:44:15;18.60;99.90
27534;DHT22;14973;51.460;7.008;2022-10-31T17:46:40;18.70;99.90
27534;DHT22;14973;51.460;7.008;2022-10-31T17:49:06;18.70;99.90
27534;DHT22;14973;51.460;7.008;2022-10-31T17:51:33;18.50;99.90
27534;DHT22;14973;51.460;7.008;2022-10-31T17:53:59;18.40;99.90
27534;DHT22;14973;51.460;7.008;2022-10-31T17:56:25;18.50;99.90
27534;DHT22;14973;51.460;7.008;2022-10-31T17:58:51;18.40;99.90
27534;DHT22;14973;51.460;7.008;2022-10-31T18:01:17;18.50;99.90
27534;DHT22;14973;51.460;7.008;2022-10-31T18:03:44;18.50;99.90
27534;DHT22;14973;51.460;7.008;2022-10-31T18:06:11;18.60;99.90
27534;DHT22;14973;51.460;7.008;2022-10-31T18:08:39;18.70;99.90
27534;DHT22;14973;51.460;7.008;2022-10-31T18:11:18;18.80;99.90
27534;DHT22;14973;51.460;7.008;2022-10-31T18:13:44;18.90;99.90
27534;DHT22;14973;51.460;7.008;2022-10-31T18:16:12;19.10;99.90
27534;DHT22;14973;51.460;7.008;2022-10-31T18:18:38;19.10;77.80
27534;DHT22;14973;51.460;7.008;2022-10-31T18:21:04;19.10;49.20